PWSweather.com
Personal Weather Stations
Station Observations
INORDPAS37
Bondues, BonduesFR 59910

BonduesBonduesFR 59910

Lat: 50.7, Lon: 3.09

Elevation: 102

Station Type: Netatmo

http://bondues.meteoamikuze.com

High Low Average
Temperature 42.3°F5.7°C 30.9°F-0.6°C 37.1°F2.8°C
Dew Point 28.9°F-1.7°C 18.5°F-7.5°C 24.3°F-4.3°C
Winds 5.6 mph 9.0 kmh 1.8 mph 2.9 kmh 4.0 mph S6.4 kmh S
Wind Gusts 16.1 mph25.9 kmh 4.3 mph6.9 kmh 10.0 mph16.1 kmh
Humidity 70% 61% 65%
Pressure 29.92 in1013.2 mb 29.78 in1008.5 mb -
Precipitation 0.04 in1.0 mm - -
Hour Temp Dew Point Humidity Winds Wind Gusts Pressure Precip Precip Rate Daily Precip Total
12:01 AM 34.2°F1.2°C 20.1°F-6.6°C 61% 3.1 mph SSE5.0 kmh SSE 6.9 mph11.1 kmh 29.80 in1009.1 mb 0.00 in0.0 mm 0.00 in0.0 mm 0.00 in0.0 mm
12:35 AM 34.0°F1.1°C 19.9°F-6.7°C 61% 3.8 mph SSE6.1 kmh SSE 8.7 mph14.0 kmh 29.80 in1009.1 mb 0.00 in0.0 mm 0.00 in0.0 mm 0.00 in0.0 mm
12:41 AM 33.8°F1.0°C 19.8°F-6.8°C 61% 3.1 mph S5.0 kmh S 5.6 mph9.0 kmh 29.81 in1009.5 mb 0.00 in0.0 mm 0.00 in0.0 mm 0.00 in0.0 mm
01:04 AM 33.6°F0.9°C 19.6°F-6.9°C 61% 3.1 mph SSE5.0 kmh SSE 6.9 mph11.1 kmh 29.81 in1009.5 mb 0.00 in0.0 mm 0.00 in0.0 mm 0.00 in0.0 mm
01:24 AM 33.4°F0.8°C 19.8°F-6.8°C 62% 1.8 mph S2.9 kmh S 4.9 mph7.9 kmh 29.81 in1009.5 mb 0.00 in0.0 mm 0.00 in0.0 mm 0.00 in0.0 mm
01:44 AM 33.4°F0.8°C 19.8°F-6.8°C 62% 2.5 mph S4.0 kmh S 5.6 mph9.0 kmh 29.81 in1009.5 mb 0.00 in0.0 mm 0.00 in0.0 mm 0.00 in0.0 mm
02:05 AM 33.3°F0.7°C 19.6°F-6.9°C 62% 2.5 mph SSE4.0 kmh SSE 5.6 mph9.0 kmh 29.82 in1009.8 mb 0.00 in0.0 mm 0.00 in0.0 mm 0.00 in0.0 mm
02:24 AM 33.3°F0.7°C 19.9°F-6.7°C 63% 2.5 mph SSW4.0 kmh SSW 8.7 mph14.0 kmh 29.82 in1009.8 mb 0.00 in0.0 mm 0.00 in0.0 mm 0.00 in0.0 mm
02:45 AM 33.4°F0.8°C 20.1°F-6.6°C 63% 1.8 mph S2.9 kmh S 4.3 mph6.9 kmh 29.83 in1010.2 mb 0.00 in0.0 mm 0.00 in0.0 mm 0.00 in0.0 mm
03:04 AM 32.9°F0.5°C 19.9°F-6.7°C 64% 3.1 mph SSE5.0 kmh SSE 8.7 mph14.0 kmh 29.84 in1010.5 mb 0.00 in0.0 mm 0.00 in0.0 mm 0.00 in0.0 mm
03:23 AM 32.4°F0.2°C 19.6°F-6.9°C 64% 1.8 mph SSE2.9 kmh SSE 4.3 mph6.9 kmh 29.84 in1010.5 mb 0.00 in0.0 mm 0.00 in0.0 mm 0.00 in0.0 mm
03:44 AM 32.0°F0.0°C 19.2°F-7.1°C 64% 1.8 mph SSE2.9 kmh SSE 4.3 mph6.9 kmh 29.85 in1010.8 mb 0.00 in0.0 mm 0.00 in0.0 mm 0.00 in0.0 mm
04:02 AM 31.8°F-0.1°C 19.0°F-7.2°C 64% 3.1 mph S5.0 kmh S 8.1 mph13.0 kmh 29.85 in1010.8 mb 0.00 in0.0 mm 0.00 in0.0 mm 0.00 in0.0 mm
04:23 AM 31.5°F-0.3°C 18.7°F-7.4°C 64% 2.5 mph S4.0 kmh S 7.4 mph11.9 kmh 29.85 in1010.8 mb 0.00 in0.0 mm 0.00 in0.0 mm 0.00 in0.0 mm
04:43 AM 31.3°F-0.4°C 18.9°F-7.3°C 65% 2.5 mph S4.0 kmh S 7.4 mph11.9 kmh 29.85 in1010.8 mb 0.00 in0.0 mm 0.00 in0.0 mm 0.00 in0.0 mm
05:04 AM 30.9°F-0.6°C 18.5°F-7.5°C 65% 2.5 mph S4.0 kmh S 4.9 mph7.9 kmh 29.85 in1010.8 mb 0.00 in0.0 mm 0.00 in0.0 mm 0.00 in0.0 mm
05:24 AM 31.1°F-0.5°C 18.7°F-7.4°C 65% 3.1 mph SSE5.0 kmh SSE 7.4 mph11.9 kmh 29.87 in1011.5 mb 0.00 in0.0 mm 0.00 in0.0 mm 0.00 in0.0 mm
05:45 AM 31.3°F-0.4°C 18.9°F-7.3°C 65% 3.8 mph S6.1 kmh S 8.7 mph14.0 kmh 29.87 in1011.5 mb 0.00 in0.0 mm 0.00 in0.0 mm 0.00 in0.0 mm
06:05 AM 31.6°F-0.2°C 19.2°F-7.1°C 65% 3.8 mph SSE6.1 kmh SSE 6.9 mph11.1 kmh 29.87 in1011.5 mb 0.00 in0.0 mm 0.00 in0.0 mm 0.00 in0.0 mm
06:25 AM 32.0°F0.0°C 19.6°F-6.9°C 65% 4.3 mph SSE6.9 kmh SSE 9.4 mph15.1 kmh 29.87 in1011.5 mb 0.00 in0.0 mm 0.00 in0.0 mm 0.00 in0.0 mm
06:46 AM 32.2°F0.1°C 20.1°F-6.6°C 66% 3.8 mph SSE6.1 kmh SSE 9.4 mph15.1 kmh 29.88 in1011.9 mb 0.00 in0.0 mm 0.00 in0.0 mm 0.00 in0.0 mm
07:07 AM 32.4°F0.2°C 20.3°F-6.5°C 66% 3.8 mph SSE6.1 kmh SSE 8.1 mph13.0 kmh 29.87 in1011.5 mb 0.00 in0.0 mm 0.00 in0.0 mm 0.00 in0.0 mm
07:27 AM 32.4°F0.2°C 20.3°F-6.5°C 66% 3.8 mph SSE6.1 kmh SSE 9.4 mph15.1 kmh 29.88 in1011.9 mb 0.00 in0.0 mm 0.00 in0.0 mm 0.00 in0.0 mm
07:48 AM 32.4°F0.2°C 20.3°F-6.5°C 66% 3.1 mph S5.0 kmh S 7.4 mph11.9 kmh 29.88 in1011.9 mb 0.00 in0.0 mm 0.00 in0.0 mm 0.00 in0.0 mm
08:08 AM 32.9°F0.5°C 20.7°F-6.3°C 66% 3.8 mph S6.1 kmh S 9.8 mph15.8 kmh 29.89 in1012.2 mb 0.00 in0.0 mm 0.00 in0.0 mm 0.00 in0.0 mm
08:28 AM 33.3°F0.7°C 21.4°F-5.9°C 67% 4.3 mph S6.9 kmh S 8.7 mph14.0 kmh 29.89 in1012.2 mb 0.00 in0.0 mm 0.00 in0.0 mm 0.00 in0.0 mm
08:48 AM 33.4°F0.8°C 21.6°F-5.8°C 67% 3.8 mph S6.1 kmh S 8.7 mph14.0 kmh 29.89 in1012.2 mb 0.00 in0.0 mm 0.00 in0.0 mm 0.00 in0.0 mm
09:03 AM 33.8°F1.0°C 21.9°F-5.6°C 67% 3.8 mph S6.1 kmh S 8.1 mph13.0 kmh 29.89 in1012.2 mb 0.00 in0.0 mm 0.00 in0.0 mm 0.00 in0.0 mm
09:24 AM 34.2°F1.2°C 22.3°F-5.4°C 67% 3.8 mph S6.1 kmh S 7.4 mph11.9 kmh 29.90 in1012.5 mb 0.00 in0.0 mm 0.00 in0.0 mm 0.00 in0.0 mm
09:44 AM 34.9°F1.6°C 23.0°F-5.0°C 67% 3.8 mph S6.1 kmh S 8.1 mph13.0 kmh 29.90 in1012.5 mb 0.00 in0.0 mm 0.00 in0.0 mm 0.00 in0.0 mm
10:05 AM 35.2°F1.8°C 23.4°F-4.8°C 67% 3.8 mph S6.1 kmh S 9.4 mph15.1 kmh 29.91 in1012.9 mb 0.00 in0.0 mm 0.00 in0.0 mm 0.00 in0.0 mm
10:24 AM 35.8°F2.1°C 24.3°F-4.3°C 68% 3.1 mph SSW5.0 kmh SSW 11.2 mph18.0 kmh 29.92 in1013.2 mb 0.00 in0.0 mm 0.00 in0.0 mm 0.00 in0.0 mm
10:45 AM 36.3°F2.4°C 24.8°F-4.0°C 68% 4.3 mph S6.9 kmh S 11.2 mph18.0 kmh 29.92 in1013.2 mb 0.00 in0.0 mm 0.00 in0.0 mm 0.00 in0.0 mm
11:05 AM 37.2°F2.9°C 25.2°F-3.8°C 67% 3.1 mph S5.0 kmh S 9.8 mph15.8 kmh 29.91 in1012.9 mb 0.00 in0.0 mm 0.00 in0.0 mm 0.00 in0.0 mm
11:35 AM 37.9°F3.3°C 25.9°F-3.4°C 67% 4.3 mph S6.9 kmh S 9.8 mph15.8 kmh 29.91 in1012.9 mb 0.00 in0.0 mm 0.00 in0.0 mm 0.00 in0.0 mm
11:46 AM 39.7°F4.3°C 27.3°F-2.6°C 66% 3.8 mph SSW6.1 kmh SSW 10.5 mph16.9 kmh 29.90 in1012.5 mb 0.00 in0.0 mm 0.00 in0.0 mm 0.00 in0.0 mm
12:05 PM 40.6°F4.8°C 27.7°F-2.4°C 65% 3.8 mph S6.1 kmh S 8.7 mph14.0 kmh 29.91 in1012.9 mb 0.00 in0.0 mm 0.00 in0.0 mm 0.00 in0.0 mm
12:26 PM 41.4°F5.2°C 28.4°F-2.0°C 65% 4.9 mph S7.9 kmh S 9.8 mph15.8 kmh 29.91 in1012.9 mb 0.00 in0.0 mm 0.00 in0.0 mm 0.00 in0.0 mm
12:45 PM 41.9°F5.5°C 28.9°F-1.7°C 65% 4.3 mph S6.9 kmh S 9.8 mph15.8 kmh 29.91 in1012.9 mb 0.00 in0.0 mm 0.00 in0.0 mm 0.00 in0.0 mm
01:06 PM 42.1°F5.6°C 28.8°F-1.8°C 64% 4.9 mph S7.9 kmh S 11.2 mph18.0 kmh 29.90 in1012.5 mb 0.00 in0.0 mm 0.00 in0.0 mm 0.00 in0.0 mm
01:26 PM 41.9°F5.5°C 28.6°F-1.9°C 64% 4.3 mph SSE6.9 kmh SSE 9.8 mph15.8 kmh 29.90 in1012.5 mb 0.00 in0.0 mm 0.00 in0.0 mm 0.00 in0.0 mm
01:46 PM 41.5°F5.3°C 28.2°F-2.1°C 64% 3.8 mph S6.1 kmh S 8.1 mph13.0 kmh 29.91 in1012.9 mb 0.00 in0.0 mm 0.00 in0.0 mm 0.00 in0.0 mm
02:06 PM 41.7°F5.4°C 28.0°F-2.2°C 63% 4.3 mph S6.9 kmh S 10.5 mph16.9 kmh 29.90 in1012.5 mb 0.00 in0.0 mm 0.00 in0.0 mm 0.00 in0.0 mm
02:27 PM 42.3°F5.7°C 28.6°F-1.9°C 63% 4.9 mph S7.9 kmh S 15.0 mph24.1 kmh 29.90 in1012.5 mb 0.00 in0.0 mm 0.00 in0.0 mm 0.00 in0.0 mm
02:47 PM 42.3°F5.7°C 28.6°F-1.9°C 63% 3.8 mph S6.1 kmh S 8.1 mph13.0 kmh 29.90 in1012.5 mb 0.00 in0.0 mm 0.00 in0.0 mm 0.00 in0.0 mm
03:07 PM 42.1°F5.6°C 28.4°F-2.0°C 63% 4.9 mph S7.9 kmh S 13.0 mph20.9 kmh 29.90 in1012.5 mb 0.00 in0.0 mm 0.00 in0.0 mm 0.00 in0.0 mm
03:28 PM 41.9°F5.5°C 28.2°F-2.1°C 63% 4.9 mph S7.9 kmh S 11.9 mph19.2 kmh 29.90 in1012.5 mb 0.00 in0.0 mm 0.00 in0.0 mm 0.00 in0.0 mm
03:47 PM 41.9°F5.5°C 28.2°F-2.1°C 63% 4.9 mph S7.9 kmh S 11.2 mph18.0 kmh 29.89 in1012.2 mb 0.00 in0.0 mm 0.00 in0.0 mm 0.00 in0.0 mm
04:08 PM 42.1°F5.6°C 28.4°F-2.0°C 63% 4.3 mph SSE6.9 kmh SSE 11.9 mph19.2 kmh 29.90 in1012.5 mb 0.00 in0.0 mm 0.00 in0.0 mm 0.00 in0.0 mm
04:28 PM 42.1°F5.6°C 28.4°F-2.0°C 63% 5.6 mph SSE9.0 kmh SSE 13.6 mph21.9 kmh 29.89 in1012.2 mb 0.00 in0.0 mm 0.00 in0.0 mm 0.00 in0.0 mm
04:48 PM 41.9°F5.5°C 28.2°F-2.1°C 63% 4.9 mph S7.9 kmh S 12.5 mph20.1 kmh 29.89 in1012.2 mb 0.00 in0.0 mm 0.00 in0.0 mm 0.00 in0.0 mm
05:08 PM 41.7°F5.4°C 28.0°F-2.2°C 63% 4.3 mph SSE6.9 kmh SSE 11.9 mph19.2 kmh 29.88 in1011.9 mb 0.00 in0.0 mm 0.00 in0.0 mm 0.00 in0.0 mm
05:29 PM 41.5°F5.3°C 27.9°F-2.3°C 63% 4.9 mph S7.9 kmh S 11.2 mph18.0 kmh 29.88 in1011.9 mb 0.00 in0.0 mm 0.00 in0.0 mm 0.00 in0.0 mm
05:55 PM 41.4°F5.2°C 27.7°F-2.4°C 63% 5.6 mph S9.0 kmh S 13.0 mph20.9 kmh 29.88 in1011.9 mb 0.00 in0.0 mm 0.00 in0.0 mm 0.00 in0.0 mm
06:15 PM 41.2°F5.1°C 27.5°F-2.5°C 63% 4.9 mph S7.9 kmh S 13.0 mph20.9 kmh 29.88 in1011.9 mb 0.00 in0.0 mm 0.00 in0.0 mm 0.00 in0.0 mm
06:35 PM 40.8°F4.9°C 27.1°F-2.7°C 63% 4.9 mph S7.9 kmh S 10.5 mph16.9 kmh 29.88 in1011.9 mb 0.00 in0.0 mm 0.00 in0.0 mm 0.00 in0.0 mm
06:55 PM 40.6°F4.8°C 27.0°F-2.8°C 63% 4.9 mph S7.9 kmh S 12.5 mph20.1 kmh 29.87 in1011.5 mb 0.00 in0.0 mm 0.00 in0.0 mm 0.00 in0.0 mm
07:05 PM 40.6°F4.8°C 27.3°F-2.6°C 64% 4.3 mph S6.9 kmh S 11.2 mph18.0 kmh 29.86 in1011.2 mb 0.00 in0.0 mm 0.00 in0.0 mm 0.00 in0.0 mm
07:23 PM 40.6°F4.8°C 27.3°F-2.6°C 64% 4.3 mph S6.9 kmh S 10.5 mph16.9 kmh 29.86 in1011.2 mb 0.00 in0.0 mm 0.00 in0.0 mm 0.00 in0.0 mm
07:41 PM 40.6°F4.8°C 27.3°F-2.6°C 64% 4.3 mph S6.9 kmh S 9.4 mph15.1 kmh 29.86 in1011.2 mb 0.00 in0.0 mm 0.00 in0.0 mm 0.00 in0.0 mm
08:05 PM 40.6°F4.8°C 27.3°F-2.6°C 64% 4.9 mph S7.9 kmh S 11.9 mph19.2 kmh 29.86 in1011.2 mb 0.00 in0.0 mm 0.00 in0.0 mm 0.00 in0.0 mm
08:23 PM 40.6°F4.8°C 27.3°F-2.6°C 64% 5.6 mph S9.0 kmh S 13.6 mph21.9 kmh 29.85 in1010.8 mb 0.00 in0.0 mm 0.00 in0.0 mm 0.00 in0.0 mm
08:41 PM 40.5°F4.7°C 27.5°F-2.5°C 65% 4.9 mph S7.9 kmh S 15.0 mph24.1 kmh 29.85 in1010.8 mb 0.00 in0.0 mm 0.00 in0.0 mm 0.00 in0.0 mm
09:07 PM 40.1°F4.5°C 27.1°F-2.7°C 65% 5.6 mph S9.0 kmh S 13.0 mph20.9 kmh 29.84 in1010.5 mb 0.00 in0.0 mm 0.00 in0.0 mm 0.00 in0.0 mm
09:27 PM 39.9°F4.4°C 27.1°F-2.7°C 65% 4.3 mph S6.9 kmh S 11.9 mph19.2 kmh 29.83 in1010.2 mb 0.00 in0.0 mm 0.00 in0.0 mm 0.00 in0.0 mm
09:46 PM 39.4°F4.1°C 27.0°F-2.8°C 66% 4.9 mph SSW7.9 kmh SSW 13.0 mph20.9 kmh 29.82 in1009.8 mb 0.00 in0.0 mm 0.01 in0.3 mm 0.00 in0.0 mm
10:07 PM 39.2°F4.0°C 27.1°F-2.7°C 67% 4.3 mph S6.9 kmh S 11.9 mph19.2 kmh 29.81 in1009.5 mb 0.01 in0.3 mm 0.01 in0.3 mm 0.01 in0.3 mm
10:26 PM 38.8°F3.8°C 26.8°F-2.9°C 67% 4.3 mph S6.9 kmh S 10.5 mph16.9 kmh 29.80 in1009.1 mb 0.01 in0.3 mm 0.00 in0.0 mm 0.01 in0.3 mm
10:44 PM 38.3°F3.5°C 26.6°F-3.0°C 68% 3.8 mph S6.1 kmh S 10.5 mph16.9 kmh 29.79 in1008.8 mb 0.01 in0.3 mm 0.01 in0.3 mm 0.02 in0.5 mm
11:05 PM 38.1°F3.4°C 26.8°F-2.9°C 69% 4.9 mph S7.9 kmh S 13.0 mph20.9 kmh 29.78 in1008.5 mb 0.01 in0.3 mm 0.00 in0.0 mm 0.02 in0.5 mm
11:24 PM 37.9°F3.3°C 26.6°F-3.0°C 69% 4.9 mph S7.9 kmh S 11.9 mph19.2 kmh 29.78 in1008.5 mb 0.02 in0.5 mm 0.03 in0.8 mm 0.02 in0.5 mm
11:45 PM 37.8°F3.2°C 26.8°F-2.9°C 70% 4.9 mph S7.9 kmh S 16.1 mph25.9 kmh 29.78 in1008.5 mb 0.02 in0.5 mm 0.01 in0.3 mm 0.04 in1.0 mm